Martins Creek, Pennsylvania
Current Conditions -  °F | °C
As of 4:51 PM on Monday 22 Dec 2014 (Local Time) from KABE Reporting Station
Haze Haze  
Wind Chill: -1°   Ceiling: 500
Heat Index:   Visibility: 2.5mi
Dew Point:   Wind: 8mph
Humidity: 89%   Direction: 60°ENE
Pressure: 30.2"   Gusts: NA
Location:  40.78°N, 75.19°W
Report Text: KABE 222151Z 06007KT 2 1/2SM BR OVC005 03/01 A3020 RMK AO2 SLP228 T00280011
Loading
Personal Weather Stations






























Interactive Weather Map New forecast layout! Learn more

10-Day Weather Forecast

Advertisements
Track Severe Weather on mobile